sensor_id;sensor_type;location;lat;lon;timestamp;temperature;humidity
6379;DHT22;3222;48.858;10.128;2024-01-25T00:00:54;7.60;99.90
6379;DHT22;3222;48.858;10.128;2024-01-25T00:03:20;7.60;99.90
6379;DHT22;3222;48.858;10.128;2024-01-25T00:05:46;7.60;99.90
6379;DHT22;3222;48.858;10.128;2024-01-25T00:08:12;7.60;99.90
6379;DHT22;3222;48.858;10.128;2024-01-25T00:10:38;7.60;99.90
6379;DHT22;3222;48.858;10.128;2024-01-25T00:13:03;7.60;99.90
6379;DHT22;3222;48.858;10.128;2024-01-25T00:15:29;7.60;99.90
6379;DHT22;3222;48.858;10.128;2024-01-25T00:17:54;7.60;99.90
6379;DHT22;3222;48.858;10.128;2024-01-25T00:20:22;7.60;99.90
6379;DHT22;3222;48.858;10.128;2024-01-25T00:22:48;7.60;99.90
6379;DHT22;3222;48.858;10.128;2024-01-25T00:25:13;7.60;99.90
6379;DHT22;3222;48.858;10.128;2024-01-25T00:27:39;7.60;99.90
6379;DHT22;3222;48.858;10.128;2024-01-25T00:30:05;7.50;99.90
6379;DHT22;3222;48.858;10.128;2024-01-25T00:32:31;7.50;99.90
6379;DHT22;3222;48.858;10.128;2024-01-25T00:34:56;7.60;99.90
6379;DHT22;3222;48.858;10.128;2024-01-25T00:37:22;7.60;99.90
6379;DHT22;3222;48.858;10.128;2024-01-25T00:39:48;7.60;99.90
6379;DHT22;3222;48.858;10.128;2024-01-25T00:42:15;7.60;99.90
6379;DHT22;3222;48.858;10.128;2024-01-25T00:44:41;7.60;99.90
6379;DHT22;3222;48.858;10.128;2024-01-25T00:47:08;7.60;99.90
6379;DHT22;3222;48.858;10.128;2024-01-25T00:49:35;7.50;99.90
6379;DHT22;3222;48.858;10.128;2024-01-25T00:52:02;7.60;99.90
6379;DHT22;3222;48.858;10.128;2024-01-25T00:54:28;7.60;99.90
6379;DHT22;3222;48.858;10.128;2024-01-25T00:56:54;7.50;99.90
6379;DHT22;3222;48.858;10.128;2024-01-25T00:59:21;7.60;99.90
6379;DHT22;3222;48.858;10.128;2024-01-25T01:01:47;7.60;99.90
6379;DHT22;3222;48.858;10.128;2024-01-25T01:04:16;7.60;99.90
6379;DHT22;3222;48.858;10.128;2024-01-25T01:06:42;7.60;99.90
6379;DHT22;3222;48.858;10.128;2024-01-25T01:09:08;7.60;99.90
6379;DHT22;3222;48.858;10.128;2024-01-25T01:11:34;7.60;99.90
6379;DHT22;3222;48.858;10.128;2024-01-25T01:14:01;7.60;99.90
6379;DHT22;3222;48.858;10.128;2024-01-25T01:16:27;7.60;99.90
6379;DHT22;3222;48.858;10.128;2024-01-25T01:18:56;7.60;99.90
6379;DHT22;3222;48.858;10.128;2024-01-25T01:21:21;7.50;99.90
6379;DHT22;3222;48.858;10.128;2024-01-25T01:23:47;7.60;99.90
6379;DHT22;3222;48.858;10.128;2024-01-25T01:26:12;7.60;99.90
6379;DHT22;3222;48.858;10.128;2024-01-25T01:28:38;7.60;99.90
6379;DHT22;3222;48.858;10.128;2024-01-25T01:31:04;7.60;99.90
6379;DHT22;3222;48.858;10.128;2024-01-25T01:33:30;7.50;99.90
6379;DHT22;3222;48.858;10.128;2024-01-25T01:35:55;7.50;99.90
6379;DHT22;3222;48.858;10.128;2024-01-25T01:38:21;7.60;99.90
6379;DHT22;3222;48.858;10.128;2024-01-25T01:40:46;7.50;99.90
6379;DHT22;3222;48.858;10.128;2024-01-25T01:43:19;7.50;99.90
6379;DHT22;3222;48.858;10.128;2024-01-25T01:45:45;7.50;99.90
6379;DHT22;3222;48.858;10.128;2024-01-25T01:48:10;7.60;99.90
6379;DHT22;3222;48.858;10.128;2024-01-25T01:50:36;7.60;99.90
6379;DHT22;3222;48.858;10.128;2024-01-25T01:53:03;7.50;99.90
6379;DHT22;3222;48.858;10.128;2024-01-25T01:55:31;7.60;99.90
6379;DHT22;3222;48.858;10.128;2024-01-25T01:57:57;7.60;99.90
6379;DHT22;3222;48.858;10.128;2024-01-25T02:00:24;7.60;99.90
6379;DHT22;3222;48.858;10.128;2024-01-25T02:02:50;7.60;99.90
6379;DHT22;3222;48.858;10.128;2024-01-25T02:05:17;7.60;99.90
6379;DHT22;3222;48.858;10.128;2024-01-25T02:07:43;7.60;99.90
6379;DHT22;3222;48.858;10.128;2024-01-25T02:10:09;7.60;99.90
6379;DHT22;3222;48.858;10.128;2024-01-25T02:12:35;7.60;99.90
6379;DHT22;3222;48.858;10.128;2024-01-25T02:15:02;7.60;99.90
6379;DHT22;3222;48.858;10.128;2024-01-25T02:17:27;7.60;99.90
6379;DHT22;3222;48.858;10.128;2024-01-25T02:19:53;7.50;99.90
6379;DHT22;3222;48.858;10.128;2024-01-25T02:22:19;7.60;99.90
6379;DHT22;3222;48.858;10.128;2024-01-25T02:24:45;7.50;99.90
6379;DHT22;3222;48.858;10.128;2024-01-25T02:27:10;7.60;99.90
6379;DHT22;3222;48.858;10.128;2024-01-25T02:29:36;7.60;99.90
6379;DHT22;3222;48.858;10.128;2024-01-25T02:32:02;7.60;99.90
6379;DHT22;3222;48.858;10.128;2024-01-25T02:34:28;7.60;99.90
6379;DHT22;3222;48.858;10.128;2024-01-25T02:36:54;7.60;99.90
6379;DHT22;3222;48.858;10.128;2024-01-25T02:39:20;7.50;99.90
6379;DHT22;3222;48.858;10.128;2024-01-25T02:41:45;7.60;99.90
6379;DHT22;3222;48.858;10.128;2024-01-25T02:44:11;7.50;99.90
6379;DHT22;3222;48.858;10.128;2024-01-25T02:46:37;7.60;99.90
6379;DHT22;3222;48.858;10.128;2024-01-25T02:49:04;7.60;99.90
6379;DHT22;3222;48.858;10.128;2024-01-25T02:51:29;7.60;99.90
6379;DHT22;3222;48.858;10.128;2024-01-25T02:53:55;7.60;99.90
6379;DHT22;3222;48.858;10.128;2024-01-25T02:56:21;7.50;99.90
6379;DHT22;3222;48.858;10.128;2024-01-25T02:58:47;7.50;99.90
6379;DHT22;3222;48.858;10.128;2024-01-25T03:01:12;7.60;99.90
6379;DHT22;3222;48.858;10.128;2024-01-25T03:03:38;7.60;99.90
6379;DHT22;3222;48.858;10.128;2024-01-25T03:06:06;7.50;99.90
6379;DHT22;3222;48.858;10.128;2024-01-25T03:08:32;7.50;99.90
6379;DHT22;3222;48.858;10.128;2024-01-25T03:10:57;7.50;99.90
6379;DHT22;3222;48.858;10.128;2024-01-25T03:13:23;7.60;99.90
6379;DHT22;3222;48.858;10.128;2024-01-25T03:15:49;7.60;99.90
6379;DHT22;3222;48.858;10.128;2024-01-25T03:18:14;7.60;99.90
6379;DHT22;3222;48.858;10.128;2024-01-25T03:20:40;7.60;99.90
6379;DHT22;3222;48.858;10.128;2024-01-25T03:23:06;7.60;99.90
6379;DHT22;3222;48.858;10.128;2024-01-25T03:25:31;7.50;99.90
6379;DHT22;3222;48.858;10.128;2024-01-25T03:27:57;7.50;99.90
6379;DHT22;3222;48.858;10.128;2024-01-25T03:30:23;7.50;99.90
6379;DHT22;3222;48.858;10.128;2024-01-25T03:32:48;7.60;99.90
6379;DHT22;3222;48.858;10.128;2024-01-25T03:35:14;7.50;99.90
6379;DHT22;3222;48.858;10.128;2024-01-25T03:37:40;7.60;99.90
6379;DHT22;3222;48.858;10.128;2024-01-25T03:40:06;7.50;99.90
6379;DHT22;3222;48.858;10.128;2024-01-25T03:42:31;7.60;99.90
6379;DHT22;3222;48.858;10.128;2024-01-25T03:44:57;7.50;99.90
6379;DHT22;3222;48.858;10.128;2024-01-25T03:47:23;7.40;99.90
6379;DHT22;3222;48.858;10.128;2024-01-25T03:49:48;7.40;99.90
6379;DHT22;3222;48.858;10.128;2024-01-25T03:52:14;7.50;99.90
6379;DHT22;3222;48.858;10.128;2024-01-25T03:54:40;7.50;99.90
6379;DHT22;3222;48.858;10.128;2024-01-25T03:57:05;7.50;99.90
6379;DHT22;3222;48.858;10.128;2024-01-25T03:59:31;7.50;99.90
6379;DHT22;3222;48.858;10.128;2024-01-25T04:01:57;7.50;99.90
6379;DHT22;3222;48.858;10.128;2024-01-25T04:04:23;7.40;99.90
6379;DHT22;3222;48.858;10.128;2024-01-25T04:06:48;7.50;99.90
6379;DHT22;3222;48.858;10.128;2024-01-25T04:09:14;7.40;99.90
6379;DHT22;3222;48.858;10.128;2024-01-25T04:11:43;7.40;99.90
6379;DHT22;3222;48.858;10.128;2024-01-25T04:14:09;7.40;99.90
6379;DHT22;3222;48.858;10.128;2024-01-25T04:16:34;7.40;99.90
6379;DHT22;3222;48.858;10.128;2024-01-25T04:19:00;7.40;99.90
6379;DHT22;3222;48.858;10.128;2024-01-25T04:21:26;7.40;99.90
6379;DHT22;3222;48.858;10.128;2024-01-25T04:23:52;7.40;99.90
6379;DHT22;3222;48.858;10.128;2024-01-25T04:26:18;7.40;99.90
6379;DHT22;3222;48.858;10.128;2024-01-25T04:28:43;7.30;99.90
6379;DHT22;3222;48.858;10.128;2024-01-25T04:31:09;7.30;99.90
6379;DHT22;3222;48.858;10.128;2024-01-25T04:33:35;7.30;99.90
6379;DHT22;3222;48.858;10.128;2024-01-25T04:36:01;7.30;99.90
6379;DHT22;3222;48.858;10.128;2024-01-25T04:38:27;7.40;99.90
6379;DHT22;3222;48.858;10.128;2024-01-25T04:40:52;7.30;99.90
6379;DHT22;3222;48.858;10.128;2024-01-25T04:43:18;7.30;99.90
6379;DHT22;3222;48.858;10.128;2024-01-25T04:45:43;7.30;99.90
6379;DHT22;3222;48.858;10.128;2024-01-25T04:48:09;7.30;99.90
6379;DHT22;3222;48.858;10.128;2024-01-25T04:50:35;7.30;99.90
6379;DHT22;3222;48.858;10.128;2024-01-25T04:53:03;7.40;99.90
6379;DHT22;3222;48.858;10.128;2024-01-25T04:55:29;7.40;99.90
6379;DHT22;3222;48.858;10.128;2024-01-25T04:57:55;7.40;99.90
6379;DHT22;3222;48.858;10.128;2024-01-25T05:00:21;7.40;99.90
6379;DHT22;3222;48.858;10.128;2024-01-25T05:02:47;7.30;99.90
6379;DHT22;3222;48.858;10.128;2024-01-25T05:05:13;7.40;99.90
6379;DHT22;3222;48.858;10.128;2024-01-25T05:07:39;7.30;99.90
6379;DHT22;3222;48.858;10.128;2024-01-25T05:10:05;7.30;99.90
6379;DHT22;3222;48.858;10.128;2024-01-25T05:12:31;7.40;99.90
6379;DHT22;3222;48.858;10.128;2024-01-25T05:14:58;7.40;99.90
6379;DHT22;3222;48.858;10.128;2024-01-25T05:17:23;7.30;99.90
6379;DHT22;3222;48.858;10.128;2024-01-25T05:19:49;7.30;99.90
6379;DHT22;3222;48.858;10.128;2024-01-25T05:22:15;7.30;99.90
6379;DHT22;3222;48.858;10.128;2024-01-25T05:24:41;7.30;99.90
6379;DHT22;3222;48.858;10.128;2024-01-25T05:27:07;7.30;99.90
6379;DHT22;3222;48.858;10.128;2024-01-25T05:29:33;7.20;99.90
6379;DHT22;3222;48.858;10.128;2024-01-25T05:31:59;7.30;99.90
6379;DHT22;3222;48.858;10.128;2024-01-25T05:34:24;7.30;99.90
6379;DHT22;3222;48.858;10.128;2024-01-25T05:36:50;7.20;99.90
6379;DHT22;3222;48.858;10.128;2024-01-25T05:39:16;7.30;99.90
6379;DHT22;3222;48.858;10.128;2024-01-25T05:41:42;7.20;99.90
6379;DHT22;3222;48.858;10.128;2024-01-25T05:44:12;7.20;99.90
6379;DHT22;3222;48.858;10.128;2024-01-25T05:46:37;7.20;99.90
6379;DHT22;3222;48.858;10.128;2024-01-25T05:49:03;7.30;99.90
6379;DHT22;3222;48.858;10.128;2024-01-25T05:51:29;7.20;99.90
6379;DHT22;3222;48.858;10.128;2024-01-25T05:53:54;7.30;99.90
6379;DHT22;3222;48.858;10.128;2024-01-25T05:56:20;7.20;99.90
6379;DHT22;3222;48.858;10.128;2024-01-25T05:58:45;7.10;99.90
6379;DHT22;3222;48.858;10.128;2024-01-25T06:01:11;7.20;99.90
6379;DHT22;3222;48.858;10.128;2024-01-25T06:03:37;7.20;99.90
6379;DHT22;3222;48.858;10.128;2024-01-25T06:06:02;7.20;99.90
6379;DHT22;3222;48.858;10.128;2024-01-25T06:08:28;7.10;99.90
6379;DHT22;3222;48.858;10.128;2024-01-25T06:10:54;7.10;99.90
6379;DHT22;3222;48.858;10.128;2024-01-25T06:13:19;7.10;99.90
6379;DHT22;3222;48.858;10.128;2024-01-25T06:15:45;7.10;99.90
6379;DHT22;3222;48.858;10.128;2024-01-25T06:18:10;7.10;99.90
6379;DHT22;3222;48.858;10.128;2024-01-25T06:20:36;7.10;99.90
6379;DHT22;3222;48.858;10.128;2024-01-25T06:23:02;7.10;99.90
6379;DHT22;3222;48.858;10.128;2024-01-25T06:25:27;7.00;99.90
6379;DHT22;3222;48.858;10.128;2024-01-25T06:27:56;6.90;99.90
6379;DHT22;3222;48.858;10.128;2024-01-25T06:30:23;6.90;99.90
6379;DHT22;3222;48.858;10.128;2024-01-25T06:32:48;6.90;99.90
6379;DHT22;3222;48.858;10.128;2024-01-25T06:35:14;6.90;99.90
6379;DHT22;3222;48.858;10.128;2024-01-25T06:37:40;6.90;99.90
6379;DHT22;3222;48.858;10.128;2024-01-25T06:40:07;6.90;99.90
6379;DHT22;3222;48.858;10.128;2024-01-25T06:42:33;6.90;99.90
6379;DHT22;3222;48.858;10.128;2024-01-25T06:44:58;6.80;99.90
6379;DHT22;3222;48.858;10.128;2024-01-25T06:47:24;6.80;99.90
6379;DHT22;3222;48.858;10.128;2024-01-25T06:49:50;6.70;99.90
6379;DHT22;3222;48.858;10.128;2024-01-25T06:52:18;6.70;99.90
6379;DHT22;3222;48.858;10.128;2024-01-25T06:54:43;6.80;99.90
6379;DHT22;3222;48.858;10.128;2024-01-25T06:57:09;6.80;99.90
6379;DHT22;3222;48.858;10.128;2024-01-25T06:59:34;6.80;99.90
6379;DHT22;3222;48.858;10.128;2024-01-25T07:02:00;6.70;99.90
6379;DHT22;3222;48.858;10.128;2024-01-25T07:04:28;6.80;99.90
6379;DHT22;3222;48.858;10.128;2024-01-25T07:06:54;6.70;99.90
6379;DHT22;3222;48.858;10.128;2024-01-25T07:09:20;6.70;99.90
6379;DHT22;3222;48.858;10.128;2024-01-25T07:11:46;6.80;99.90
6379;DHT22;3222;48.858;10.128;2024-01-25T07:14:12;6.80;99.90
6379;DHT22;3222;48.858;10.128;2024-01-25T07:16:38;6.70;99.90
6379;DHT22;3222;48.858;10.128;2024-01-25T07:19:03;6.60;99.90
6379;DHT22;3222;48.858;10.128;2024-01-25T07:21:29;6.70;99.90
6379;DHT22;3222;48.858;10.128;2024-01-25T07:24:02;6.60;99.90
6379;DHT22;3222;48.858;10.128;2024-01-25T07:26:28;6.60;99.90
6379;DHT22;3222;48.858;10.128;2024-01-25T07:28:55;6.50;99.90
6379;DHT22;3222;48.858;10.128;2024-01-25T07:31:27;6.60;99.90
6379;DHT22;3222;48.858;10.128;2024-01-25T07:33:53;6.50;99.90
6379;DHT22;3222;48.858;10.128;2024-01-25T07:36:19;6.50;99.90
6379;DHT22;3222;48.858;10.128;2024-01-25T07:38:45;6.50;99.90
6379;DHT22;3222;48.858;10.128;2024-01-25T07:41:13;6.60;99.90
6379;DHT22;3222;48.858;10.128;2024-01-25T07:43:38;6.60;99.90
6379;DHT22;3222;48.858;10.128;2024-01-25T07:46:04;6.50;99.90
6379;DHT22;3222;48.858;10.128;2024-01-25T07:48:30;6.50;99.90
6379;DHT22;3222;48.858;10.128;2024-01-25T07:50:56;6.50;99.90
6379;DHT22;3222;48.858;10.128;2024-01-25T07:53:22;6.50;99.90
6379;DHT22;3222;48.858;10.128;2024-01-25T07:55:47;6.50;99.90
6379;DHT22;3222;48.858;10.128;2024-01-25T07:58:14;6.60;99.90
6379;DHT22;3222;48.858;10.128;2024-01-25T08:00:40;6.60;99.90
6379;DHT22;3222;48.858;10.128;2024-01-25T08:03:06;6.60;99.90
6379;DHT22;3222;48.858;10.128;2024-01-25T08:05:31;6.60;99.90
6379;DHT22;3222;48.858;10.128;2024-01-25T08:07:57;6.60;99.90
6379;DHT22;3222;48.858;10.128;2024-01-25T08:10:23;6.60;99.90
6379;DHT22;3222;48.858;10.128;2024-01-25T08:12:48;6.70;99.90
6379;DHT22;3222;48.858;10.128;2024-01-25T08:15:14;6.60;99.90
6379;DHT22;3222;48.858;10.128;2024-01-25T08:17:40;6.60;99.90
6379;DHT22;3222;48.858;10.128;2024-01-25T08:20:06;6.70;99.90
6379;DHT22;3222;48.858;10.128;2024-01-25T08:22:32;6.60;99.90
6379;DHT22;3222;48.858;10.128;2024-01-25T08:24:58;6.60;99.90
6379;DHT22;3222;48.858;10.128;2024-01-25T08:27:24;6.70;99.90
6379;DHT22;3222;48.858;10.128;2024-01-25T08:29:50;6.70;99.90
6379;DHT22;3222;48.858;10.128;2024-01-25T08:32:16;6.70;99.90
6379;DHT22;3222;48.858;10.128;2024-01-25T08:34:41;6.70;99.90
6379;DHT22;3222;48.858;10.128;2024-01-25T08:37:07;6.70;99.90
6379;DHT22;3222;48.858;10.128;2024-01-25T08:39:33;6.70;99.90
6379;DHT22;3222;48.858;10.128;2024-01-25T08:41:58;6.70;99.90
6379;DHT22;3222;48.858;10.128;2024-01-25T08:44:29;6.70;99.90
6379;DHT22;3222;48.858;10.128;2024-01-25T08:46:54;6.70;99.90
6379;DHT22;3222;48.858;10.128;2024-01-25T08:49:20;6.70;99.90
6379;DHT22;3222;48.858;10.128;2024-01-25T08:51:46;6.80;99.90
6379;DHT22;3222;48.858;10.128;2024-01-25T08:54:11;6.80;99.90
6379;DHT22;3222;48.858;10.128;2024-01-25T08:56:37;7.00;99.90
6379;DHT22;3222;48.858;10.128;2024-01-25T08:59:03;7.00;99.90
6379;DHT22;3222;48.858;10.128;2024-01-25T09:01:28;7.00;99.90
6379;DHT22;3222;48.858;10.128;2024-01-25T09:03:54;7.00;99.90
6379;DHT22;3222;48.858;10.128;2024-01-25T09:06:20;7.10;99.90
6379;DHT22;3222;48.858;10.128;2024-01-25T09:08:45;7.10;99.90
6379;DHT22;3222;48.858;10.128;2024-01-25T09:11:11;7.00;99.90
6379;DHT22;3222;48.858;10.128;2024-01-25T09:13:37;7.10;99.90
6379;DHT22;3222;48.858;10.128;2024-01-25T09:16:02;7.10;99.90
6379;DHT22;3222;48.858;10.128;2024-01-25T09:18:28;7.10;99.90
6379;DHT22;3222;48.858;10.128;2024-01-25T09:20:53;7.10;99.90
6379;DHT22;3222;48.858;10.128;2024-01-25T09:23:19;7.00;99.90
6379;DHT22;3222;48.858;10.128;2024-01-25T09:25:45;7.00;99.90
6379;DHT22;3222;48.858;10.128;2024-01-25T09:28:11;7.10;99.90
6379;DHT22;3222;48.858;10.128;2024-01-25T09:30:38;6.90;99.90
6379;DHT22;3222;48.858;10.128;2024-01-25T09:33:05;7.00;99.90
6379;DHT22;3222;48.858;10.128;2024-01-25T09:35:31;7.10;99.90
6379;DHT22;3222;48.858;10.128;2024-01-25T09:37:56;7.10;99.90
6379;DHT22;3222;48.858;10.128;2024-01-25T09:40:22;7.10;99.90
6379;DHT22;3222;48.858;10.128;2024-01-25T09:42:48;7.20;99.90
6379;DHT22;3222;48.858;10.128;2024-01-25T09:45:18;7.30;99.90
6379;DHT22;3222;48.858;10.128;2024-01-25T09:47:46;7.20;99.90
6379;DHT22;3222;48.858;10.128;2024-01-25T09:50:13;7.20;99.90
6379;DHT22;3222;48.858;10.128;2024-01-25T09:52:43;7.10;99.90
6379;DHT22;3222;48.858;10.128;2024-01-25T09:55:11;7.20;99.90
6379;DHT22;3222;48.858;10.128;2024-01-25T09:57:45;7.20;99.90
6379;DHT22;3222;48.858;10.128;2024-01-25T10:00:12;7.20;99.90
6379;DHT22;3222;48.858;10.128;2024-01-25T10:02:38;7.10;99.90
6379;DHT22;3222;48.858;10.128;2024-01-25T10:05:05;7.30;99.90
6379;DHT22;3222;48.858;10.128;2024-01-25T10:07:41;7.30;99.90
6379;DHT22;3222;48.858;10.128;2024-01-25T10:10:08;7.30;99.90
6379;DHT22;3222;48.858;10.128;2024-01-25T10:12:34;7.30;99.90
6379;DHT22;3222;48.858;10.128;2024-01-25T10:15:01;7.30;99.90
6379;DHT22;3222;48.858;10.128;2024-01-25T10:17:28;7.40;99.90
6379;DHT22;3222;48.858;10.128;2024-01-25T10:19:55;7.40;99.90
6379;DHT22;3222;48.858;10.128;2024-01-25T10:22:20;7.30;99.90
6379;DHT22;3222;48.858;10.128;2024-01-25T10:24:46;7.40;99.90
6379;DHT22;3222;48.858;10.128;2024-01-25T10:27:12;7.40;99.90
6379;DHT22;3222;48.858;10.128;2024-01-25T10:29:38;7.40;99.90
6379;DHT22;3222;48.858;10.128;2024-01-25T10:32:04;7.40;99.90
6379;DHT22;3222;48.858;10.128;2024-01-25T10:34:30;7.40;99.90
6379;DHT22;3222;48.858;10.128;2024-01-25T10:36:57;7.50;99.90
6379;DHT22;3222;48.858;10.128;2024-01-25T10:39:24;7.40;99.90
6379;DHT22;3222;48.858;10.128;2024-01-25T10:41:50;7.50;99.90
6379;DHT22;3222;48.858;10.128;2024-01-25T10:44:19;7.70;99.90
6379;DHT22;3222;48.858;10.128;2024-01-25T10:46:48;7.70;99.90
6379;DHT22;3222;48.858;10.128;2024-01-25T10:49:15;7.70;99.90
6379;DHT22;3222;48.858;10.128;2024-01-25T10:51:41;7.80;99.90
6379;DHT22;3222;48.858;10.128;2024-01-25T10:54:09;7.80;99.90
6379;DHT22;3222;48.858;10.128;2024-01-25T10:56:37;7.90;99.90
6379;DHT22;3222;48.858;10.128;2024-01-25T10:59:03;7.80;99.90
6379;DHT22;3222;48.858;10.128;2024-01-25T11:01:29;7.90;99.90
6379;DHT22;3222;48.858;10.128;2024-01-25T11:03:55;7.80;99.90
6379;DHT22;3222;48.858;10.128;2024-01-25T11:06:22;7.90;99.90
6379;DHT22;3222;48.858;10.128;2024-01-25T11:08:48;8.00;99.90
6379;DHT22;3222;48.858;10.128;2024-01-25T11:11:15;7.90;99.90
6379;DHT22;3222;48.858;10.128;2024-01-25T11:13:42;7.90;99.90
6379;DHT22;3222;48.858;10.128;2024-01-25T11:16:12;8.00;99.90
6379;DHT22;3222;48.858;10.128;2024-01-25T11:18:55;8.00;99.90
6379;DHT22;3222;48.858;10.128;2024-01-25T11:21:47;8.10;99.90
6379;DHT22;3222;48.858;10.128;2024-01-25T11:26:39;8.10;99.90
6379;DHT22;3222;48.858;10.128;2024-01-25T11:29:05;8.20;99.90
6379;DHT22;3222;48.858;10.128;2024-01-25T11:31:31;8.10;99.90
6379;DHT22;3222;48.858;10.128;2024-01-25T11:33:58;8.20;99.90
6379;DHT22;3222;48.858;10.128;2024-01-25T11:36:25;8.10;99.90
6379;DHT22;3222;48.858;10.128;2024-01-25T11:38:51;8.10;99.90
6379;DHT22;3222;48.858;10.128;2024-01-25T11:41:16;8.10;99.90
6379;DHT22;3222;48.858;10.128;2024-01-25T11:43:42;8.10;99.90
6379;DHT22;3222;48.858;10.128;2024-01-25T11:46:08;8.10;99.90
6379;DHT22;3222;48.858;10.128;2024-01-25T11:48:38;8.20;99.90
6379;DHT22;3222;48.858;10.128;2024-01-25T11:51:03;8.30;99.90
6379;DHT22;3222;48.858;10.128;2024-01-25T11:53:29;8.30;99.90
6379;DHT22;3222;48.858;10.128;2024-01-25T11:55:55;8.30;99.90
6379;DHT22;3222;48.858;10.128;2024-01-25T11:58:21;8.30;99.90
6379;DHT22;3222;48.858;10.128;2024-01-25T12:00:47;8.40;99.90
6379;DHT22;3222;48.858;10.128;2024-01-25T12:03:13;8.40;99.90
6379;DHT22;3222;48.858;10.128;2024-01-25T12:05:39;8.40;99.90
6379;DHT22;3222;48.858;10.128;2024-01-25T12:08:09;8.50;99.90
6379;DHT22;3222;48.858;10.128;2024-01-25T12:10:37;8.50;99.90
6379;DHT22;3222;48.858;10.128;2024-01-25T12:13:03;8.50;99.90
6379;DHT22;3222;48.858;10.128;2024-01-25T12:15:32;8.40;99.90
6379;DHT22;3222;48.858;10.128;2024-01-25T12:17:58;8.50;99.90
6379;DHT22;3222;48.858;10.128;2024-01-25T12:20:24;8.40;99.90
6379;DHT22;3222;48.858;10.128;2024-01-25T12:22:50;8.40;99.90
6379;DHT22;3222;48.858;10.128;2024-01-25T12:25:15;8.40;99.90
6379;DHT22;3222;48.858;10.128;2024-01-25T12:27:41;8.50;99.90
6379;DHT22;3222;48.858;10.128;2024-01-25T12:30:07;8.50;99.90
6379;DHT22;3222;48.858;10.128;2024-01-25T12:32:34;8.50;99.90
6379;DHT22;3222;48.858;10.128;2024-01-25T12:35:00;8.40;99.90
6379;DHT22;3222;48.858;10.128;2024-01-25T12:37:27;8.50;99.90
6379;DHT22;3222;48.858;10.128;2024-01-25T12:39:53;8.50;99.90
6379;DHT22;3222;48.858;10.128;2024-01-25T12:42:20;8.60;99.90
6379;DHT22;3222;48.858;10.128;2024-01-25T12:44:46;8.60;99.90
6379;DHT22;3222;48.858;10.128;2024-01-25T12:47:12;8.70;99.90
6379;DHT22;3222;48.858;10.128;2024-01-25T12:49:42;8.60;99.90
6379;DHT22;3222;48.858;10.128;2024-01-25T12:52:09;8.60;99.90
6379;DHT22;3222;48.858;10.128;2024-01-25T12:54:35;8.50;99.90
6379;DHT22;3222;48.858;10.128;2024-01-25T12:57:01;8.50;99.90
6379;DHT22;3222;48.858;10.128;2024-01-25T12:59:27;8.50;99.90
6379;DHT22;3222;48.858;10.128;2024-01-25T13:01:53;8.50;99.90
6379;DHT22;3222;48.858;10.128;2024-01-25T13:04:18;8.60;99.90
6379;DHT22;3222;48.858;10.128;2024-01-25T13:06:46;8.60;99.90
6379;DHT22;3222;48.858;10.128;2024-01-25T13:09:12;8.50;99.90
6379;DHT22;3222;48.858;10.128;2024-01-25T13:11:38;8.50;99.90
6379;DHT22;3222;48.858;10.128;2024-01-25T13:14:04;8.50;99.90
6379;DHT22;3222;48.858;10.128;2024-01-25T13:16:29;8.50;99.90
6379;DHT22;3222;48.858;10.128;2024-01-25T13:18:55;8.50;99.90
6379;DHT22;3222;48.858;10.128;2024-01-25T13:21:20;8.40;99.90
6379;DHT22;3222;48.858;10.128;2024-01-25T13:23:46;8.50;99.90
6379;DHT22;3222;48.858;10.128;2024-01-25T13:26:12;8.60;99.90
6379;DHT22;3222;48.858;10.128;2024-01-25T13:28:37;8.60;99.90
6379;DHT22;3222;48.858;10.128;2024-01-25T13:31:03;8.60;99.90
6379;DHT22;3222;48.858;10.128;2024-01-25T13:33:29;8.60;99.90
6379;DHT22;3222;48.858;10.128;2024-01-25T13:35:54;8.50;99.90
6379;DHT22;3222;48.858;10.128;2024-01-25T13:38:20;8.50;99.90
6379;DHT22;3222;48.858;10.128;2024-01-25T13:40:45;8.50;99.90
6379;DHT22;3222;48.858;10.128;2024-01-25T13:43:11;8.50;99.90
6379;DHT22;3222;48.858;10.128;2024-01-25T13:45:37;8.50;99.90
6379;DHT22;3222;48.858;10.128;2024-01-25T13:48:03;8.60;99.90
6379;DHT22;3222;48.858;10.128;2024-01-25T13:50:29;8.60;99.90
6379;DHT22;3222;48.858;10.128;2024-01-25T13:52:54;8.60;99.90
6379;DHT22;3222;48.858;10.128;2024-01-25T13:55:20;8.60;99.90
6379;DHT22;3222;48.858;10.128;2024-01-25T13:57:46;8.70;99.90
6379;DHT22;3222;48.858;10.128;2024-01-25T14:00:12;8.70;99.90
6379;DHT22;3222;48.858;10.128;2024-01-25T14:02:40;8.70;99.90
6379;DHT22;3222;48.858;10.128;2024-01-25T14:05:11;8.70;99.90
6379;DHT22;3222;48.858;10.128;2024-01-25T14:07:37;8.70;99.90
6379;DHT22;3222;48.858;10.128;2024-01-25T14:10:02;8.60;99.90
6379;DHT22;3222;48.858;10.128;2024-01-25T14:12:28;8.60;99.90
6379;DHT22;3222;48.858;10.128;2024-01-25T14:14:54;8.60;99.90
6379;DHT22;3222;48.858;10.128;2024-01-25T14:17:19;8.80;99.90
6379;DHT22;3222;48.858;10.128;2024-01-25T14:19:45;8.80;99.90
6379;DHT22;3222;48.858;10.128;2024-01-25T14:22:11;8.80;99.90
6379;DHT22;3222;48.858;10.128;2024-01-25T14:24:36;8.80;99.90
6379;DHT22;3222;48.858;10.128;2024-01-25T14:27:02;8.70;99.90
6379;DHT22;3222;48.858;10.128;2024-01-25T14:29:28;8.70;99.90
6379;DHT22;3222;48.858;10.128;2024-01-25T14:31:58;8.70;99.90
6379;DHT22;3222;48.858;10.128;2024-01-25T14:34:23;8.70;99.90
6379;DHT22;3222;48.858;10.128;2024-01-25T14:36:49;8.70;99.90
6379;DHT22;3222;48.858;10.128;2024-01-25T14:39:16;8.70;99.90
6379;DHT22;3222;48.858;10.128;2024-01-25T14:41:45;8.70;99.90
6379;DHT22;3222;48.858;10.128;2024-01-25T14:44:11;8.60;99.90
6379;DHT22;3222;48.858;10.128;2024-01-25T14:46:37;8.50;99.90
6379;DHT22;3222;48.858;10.128;2024-01-25T14:49:03;8.50;99.90
6379;DHT22;3222;48.858;10.128;2024-01-25T14:51:29;8.60;99.90
6379;DHT22;3222;48.858;10.128;2024-01-25T14:53:55;8.50;99.90
6379;DHT22;3222;48.858;10.128;2024-01-25T14:56:20;8.40;99.90
6379;DHT22;3222;48.858;10.128;2024-01-25T14:58:46;8.40;99.90
6379;DHT22;3222;48.858;10.128;2024-01-25T15:01:15;8.40;99.90
6379;DHT22;3222;48.858;10.128;2024-01-25T15:03:46;8.40;99.90
6379;DHT22;3222;48.858;10.128;2024-01-25T15:06:12;8.40;99.90
6379;DHT22;3222;48.858;10.128;2024-01-25T15:08:38;8.50;99.90
6379;DHT22;3222;48.858;10.128;2024-01-25T15:11:04;8.60;99.90
6379;DHT22;3222;48.858;10.128;2024-01-25T15:13:30;8.50;99.90
6379;DHT22;3222;48.858;10.128;2024-01-25T15:15:55;8.50;99.90
6379;DHT22;3222;48.858;10.128;2024-01-25T15:18:21;8.40;99.90
6379;DHT22;3222;48.858;10.128;2024-01-25T15:20:47;8.40;99.90
6379;DHT22;3222;48.858;10.128;2024-01-25T15:23:13;8.30;99.90
6379;DHT22;3222;48.858;10.128;2024-01-25T15:25:39;8.30;99.90
6379;DHT22;3222;48.858;10.128;2024-01-25T15:28:05;8.40;99.90
6379;DHT22;3222;48.858;10.128;2024-01-25T15:30:31;8.40;99.90
6379;DHT22;3222;48.858;10.128;2024-01-25T15:32:57;8.50;99.90
6379;DHT22;3222;48.858;10.128;2024-01-25T15:35:23;8.30;99.90
6379;DHT22;3222;48.858;10.128;2024-01-25T15:37:48;8.40;99.90
6379;DHT22;3222;48.858;10.128;2024-01-25T15:40:14;8.30;99.90
6379;DHT22;3222;48.858;10.128;2024-01-25T15:42:42;8.20;99.90
6379;DHT22;3222;48.858;10.128;2024-01-25T15:45:09;8.20;99.90
6379;DHT22;3222;48.858;10.128;2024-01-25T15:47:35;8.20;99.90
6379;DHT22;3222;48.858;10.128;2024-01-25T15:50:02;8.10;99.90
6379;DHT22;3222;48.858;10.128;2024-01-25T15:52:31;8.10;99.90
6379;DHT22;3222;48.858;10.128;2024-01-25T15:54:57;8.10;99.90
6379;DHT22;3222;48.858;10.128;2024-01-25T15:57:23;8.10;99.90